Time;durP1;ratioP1;P1;durP2;ratioP2;P2;SDS_P1;SDS_P2;PMS_P1;PMS_P2;Temp;Humidity;BMP_temperature;BMP_pressure;BME280_temperature;BME280_humidity;BME280_pressure;Samples;Min_cycle;Max_cycle;Signal;HPM_P1;HPM_P2
2022/06/05 00:00:06;;;;;;;9.50;4.40;;;10.80;99.90;;;;;;5071424;28;20044;-65
2022/06/05 00:02:46;;;;;;;9.27;4.43;;;10.80;99.90;;;;;;5080886;28;20037;-65
2022/06/05 00:05:20;;;;;;;7.95;4.50;;;10.80;99.90;;;;;;5058020;28;20149;-60
2022/06/05 00:08:20;;;;;;;9.18;4.40;;;10.80;99.90;;;;;;5071183;28;20055;-60
2022/06/05 00:10:53;;;;;;;11.75;4.53;;;10.80;99.90;;;;;;5064432;28;20052;-61
2022/06/05 00:13:22;;;;;;;8.00;4.47;;;10.80;99.90;;;;;;5087386;28;20048;-63
2022/06/05 00:15:48;;;;;;;10.10;4.50;;;10.80;99.90;;;;;;5089167;28;20106;-57
2022/06/05 00:18:14;;;;;;;17.33;4.50;;;10.90;99.90;;;;;;5070920;28;20062;-58
2022/06/05 00:20:45;;;;;;;9.02;4.72;;;10.80;99.90;;;;;;5089211;28;20131;-59
2022/06/05 00:23:11;;;;;;;8.02;4.60;;;10.80;99.90;;;;;;5069616;28;20474;-60
2022/06/05 00:26:08;;;;;;;12.65;5.00;;;10.80;99.90;;;;;;5089241;28;20567;-54
2022/06/05 00:28:52;;;;;;;10.77;5.35;;;10.90;99.90;;;;;;5057109;28;20052;-62
2022/06/05 00:31:48;;;;;;;13.63;5.68;;;10.90;99.90;;;;;;5071149;28;20055;-60
2022/06/05 00:34:13;;;;;;;8.20;4.97;;;10.90;99.90;;;;;;5078929;28;20064;-51
2022/06/05 00:37:17;;;;;;;12.85;5.03;;;10.90;99.90;;;;;;5085372;28;20040;-62
2022/06/05 00:39:54;;;;;;;9.35;5.10;;;10.90;99.90;;;;;;5088450;28;20056;-60
2022/06/05 00:42:24;;;;;;;8.25;4.90;;;10.90;99.90;;;;;;5076103;28;20379;-59
2022/06/05 00:44:59;;;;;;;12.98;5.13;;;10.90;99.90;;;;;;5068160;28;20497;-64
2022/06/05 00:47:30;;;;;;;11.35;5.30;;;10.90;99.90;;;;;;5075818;28;20039;-60
2022/06/05 00:50:22;;;;;;;10.98;5.18;;;10.90;99.90;;;;;;5069424;28;20040;-58
2022/06/05 00:52:53;;;;;;;10.70;5.07;;;10.90;99.90;;;;;;5077126;28;20036;-56
2022/06/05 00:55:20;;;;;;;10.88;4.90;;;10.90;99.90;;;;;;5088261;28;20531;-61
2022/06/05 00:57:47;;;;;;;14.52;5.38;;;10.90;99.90;;;;;;5052965;28;20410;-57
2022/06/05 01:00:27;;;;;;;11.52;4.72;;;10.90;99.90;;;;;;5070811;28;20494;-56
2022/06/05 01:02:56;;;;;;;12.65;5.18;;;10.90;99.90;;;;;;5068577;28;20428;-58
2022/06/05 01:05:23;;;;;;;12.95;5.45;;;10.90;99.90;;;;;;5088238;28;20123;-62
2022/06/05 01:07:49;;;;;;;9.52;5.15;;;10.90;99.90;;;;;;5088133;28;20056;-56
2022/06/05 01:10:17;;;;;;;11.48;5.55;;;10.90;99.90;;;;;;5069709;28;20044;-61
2022/06/05 01:13:04;;;;;;;16.15;5.15;;;11.00;99.90;;;;;;5077502;28;20032;-55
2022/06/05 01:15:48;;;;;;;10.45;5.35;;;11.00;99.90;;;;;;5088404;28;20040;-55
2022/06/05 01:18:41;;;;;;;11.98;5.40;;;11.00;99.90;;;;;;5075888;28;20101;-63
2022/06/05 01:21:35;;;;;;;10.93;5.40;;;11.00;99.90;;;;;;5059833;28;20138;-55
2022/06/05 01:24:23;;;;;;;9.80;5.57;;;11.00;99.90;;;;;;5081077;28;20055;-65
2022/06/05 01:27:00;;;;;;;10.95;5.32;;;11.00;99.90;;;;;;5041141;28;20532;-56
2022/06/05 01:29:37;;;;;;;16.95;6.03;;;11.00;99.90;;;;;;5086172;28;20240;-56
2022/06/05 01:32:11;;;;;;;8.15;5.80;;;11.00;99.90;;;;;;5088023;28;20052;-54
2022/06/05 01:34:48;;;;;;;8.68;5.72;;;11.10;99.90;;;;;;5069107;28;20133;-60
2022/06/05 01:37:13;;;;;;;15.43;5.75;;;11.10;99.90;;;;;;5084257;28;20044;-57
2022/06/05 01:39:49;;;;;;;9.77;5.43;;;11.10;99.90;;;;;;5087432;28;20051;-60
2022/06/05 01:42:33;;;;;;;10.15;5.50;;;11.10;99.90;;;;;;5067210;28;20055;-65
2022/06/05 01:45:03;;;;;;;16.75;5.97;;;11.20;99.90;;;;;;5085267;28;20143;-58
2022/06/05 01:47:37;;;;;;;16.17;5.75;;;11.20;99.90;;;;;;5087935;28;20133;-57
2022/06/05 01:50:30;;;;;;;13.85;6.47;;;11.20;99.90;;;;;;5085106;28;20483;-58
2022/06/05 01:53:12;;;;;;;17.77;7.93;;;11.20;99.90;;;;;;5045437;28;20109;-61
2022/06/05 01:55:45;;;;;;;15.50;7.05;;;11.20;99.90;;;;;;5086907;28;20123;-57
2022/06/05 01:58:15;;;;;;;14.90;7.18;;;11.20;99.90;;;;;;5069258;28;20077;-58
2022/06/05 02:00:42;;;;;;;14.27;7.63;;;11.20;99.90;;;;;;5068731;28;20495;-60
2022/06/05 02:03:17;;;;;;;12.38;7.18;;;11.20;99.90;;;;;;5086467;28;20168;-65
2022/06/05 02:05:55;;;;;;;12.75;6.88;;;11.30;99.90;;;;;;5086315;28;20044;-62
2022/06/05 02:08:31;;;;;;;13.60;7.07;;;11.20;99.90;;;;;;5087328;28;20035;-53
2022/06/05 02:11:22;;;;;;;16.42;6.40;;;11.20;99.90;;;;;;5082801;28;20126;-61
2022/06/05 02:13:57;;;;;;;11.43;6.10;;;11.20;99.90;;;;;;5056914;28;20066;-62
2022/06/05 02:16:24;;;;;;;15.43;6.20;;;11.30;99.90;;;;;;5052493;28;20048;-55
2022/06/05 02:18:50;;;;;;;20.63;6.93;;;11.30;99.90;;;;;;5068605;28;20040;-56
2022/06/05 02:21:16;;;;;;;14.57;6.32;;;11.30;99.90;;;;;;5086922;28;20047;-65
2022/06/05 02:23:42;;;;;;;15.20;6.38;;;11.30;99.90;;;;;;5086482;28;20074;-61
2022/06/05 02:26:09;;;;;;;14.50;6.68;;;11.30;99.90;;;;;;5086145;28;20052;-63
2022/06/05 02:28:36;;;;;;;13.02;6.35;;;11.30;99.90;;;;;;5085958;28;20155;-60
2022/06/05 02:31:24;;;;;;;10.02;6.10;;;11.30;99.90;;;;;;5082783;28;20062;-62
2022/06/05 02:33:52;;;;;;;9.35;6.25;;;11.40;99.90;;;;;;5085777;28;20655;-57
2022/06/05 02:36:48;;;;;;;9.80;5.97;;;11.40;99.90;;;;;;5067058;28;20101;-62
2022/06/05 02:39:19;;;;;;;11.23;5.90;;;11.40;99.90;;;;;;5058828;28;20041;-59
2022/06/05 02:41:53;;;;;;;18.45;6.15;;;11.40;99.90;;;;;;5067172;28;20040;-55
2022/06/05 02:44:44;;;;;;;15.48;6.70;;;11.40;99.90;;;;;;5064876;28;20058;-61
2022/06/05 02:47:35;;;;;;;10.85;6.05;;;11.40;99.90;;;;;;5045401;28;20044;-60
2022/06/05 02:50:20;;;;;;;13.85;6.20;;;11.40;99.90;;;;;;5085626;28;20089;-59
2022/06/05 02:52:46;;;;;;;14.50;6.60;;;11.50;99.90;;;;;;5086575;28;20068;-58
2022/06/05 02:55:21;;;;;;;13.40;6.10;;;11.50;99.90;;;;;;5086055;28;20414;-60
2022/06/05 02:57:47;;;;;;;11.63;6.30;;;11.50;99.90;;;;;;5067890;28;20060;-57
2022/06/05 03:00:17;;;;;;;16.45;6.57;;;11.60;99.90;;;;;;5068115;28;20043;-60
2022/06/05 03:05:27;;;;;;;15.73;7.13;;;11.60;99.90;;;;;;5065259;28;20044;-62
2022/06/05 03:07:53;;;;;;;15.82;7.55;;;11.60;99.90;;;;;;5057821;28;20048;-62
2022/06/05 03:10:19;;;;;;;13.02;6.32;;;11.60;99.90;;;;;;5086175;28;20105;-61
2022/06/05 03:12:45;;;;;;;12.68;6.57;;;11.60;99.90;;;;;;5066907;28;20078;-59
2022/06/05 03:15:12;;;;;;;12.75;6.40;;;11.70;99.90;;;;;;5085453;28;20122;-57
2022/06/05 03:17:37;;;;;;;12.45;7.10;;;11.60;99.90;;;;;;5067864;28;20040;-59
2022/06/05 03:20:04;;;;;;;15.18;6.43;;;11.60;99.90;;;;;;5068020;28;20482;-65
2022/06/05 03:22:30;;;;;;;14.23;6.72;;;11.70;99.90;;;;;;5051255;28;20058;-54
2022/06/05 03:24:56;;;;;;;9.52;6.60;;;11.60;99.90;;;;;;5065493;28;20039;-67
2022/06/05 03:27:21;;;;;;;15.88;7.32;;;11.70;99.90;;;;;;5066113;28;20053;-62
2022/06/05 03:29:48;;;;;;;15.93;7.03;;;11.70;99.90;;;;;;5073228;28;20044;-60
2022/06/05 03:32:14;;;;;;;15.77;6.80;;;11.80;99.90;;;;;;5085364;28;20051;-57
2022/06/05 03:34:40;;;;;;;13.25;7.35;;;11.80;99.90;;;;;;5085124;28;20791;-60
2022/06/05 03:37:05;;;;;;;15.65;7.07;;;11.80;99.90;;;;;;5084613;28;20052;-64
2022/06/05 03:39:32;;;;;;;10.35;7.43;;;11.90;99.90;;;;;;5067313;28;20479;-60
2022/06/05 03:41:59;;;;;;;22.38;8.88;;;11.90;99.90;;;;;;5084898;28;20047;-57
2022/06/05 03:44:28;;;;;;;17.23;7.40;;;12.00;99.90;;;;;;5067729;28;20520;-62
2022/06/05 03:46:53;;;;;;;15.35;7.30;;;12.00;99.90;;;;;;5083584;28;20052;-57
2022/06/05 03:49:20;;;;;;;15.77;8.05;;;12.00;99.90;;;;;;5067159;28;20088;-65
2022/06/05 03:51:47;;;;;;;14.35;8.07;;;12.00;99.90;;;;;;5067041;28;20052;-62
2022/06/05 03:54:13;;;;;;;12.10;7.50;;;12.10;99.90;;;;;;5066735;28;21160;-58
2022/06/05 03:56:40;;;;;;;12.82;7.28;;;12.10;99.90;;;;;;5066824;28;20048;-53
2022/06/05 03:59:06;;;;;;;15.52;7.28;;;12.10;99.90;;;;;;5067048;28;20051;-62
2022/06/05 04:01:31;;;;;;;13.27;7.13;;;12.10;99.90;;;;;;5085868;28;20044;-64
2022/06/05 04:03:58;;;;;;;16.70;7.43;;;12.10;99.90;;;;;;5066933;28;20050;-67
2022/06/05 04:06:29;;;;;;;12.48;6.80;;;12.10;99.90;;;;;;5049418;28;20597;-64
2022/06/05 04:09:04;;;;;;;15.82;7.55;;;12.20;99.90;;;;;;5067058;28;20048;-58
2022/06/05 04:11:32;;;;;;;17.98;7.47;;;12.20;99.90;;;;;;5067698;28;20048;-59
2022/06/05 04:13:58;;;;;;;12.35;7.63;;;12.20;99.90;;;;;;5084993;28;20486;-57
2022/06/05 04:16:26;;;;;;;12.25;6.20;;;12.30;99.90;;;;;;5047115;28;20177;-66
2022/06/05 04:18:53;;;;;;;14.25;8.07;;;12.20;99.90;;;;;;5078489;28;20082;-58
2022/06/05 04:21:21;;;;;;;12.50;6.68;;;12.30;99.90;;;;;;5085067;28;20081;-60
2022/06/05 04:23:48;;;;;;;16.20;7.72;;;12.30;99.90;;;;;;5067742;28;20044;-61
2022/06/05 04:26:18;;;;;;;18.92;8.20;;;12.30;99.90;;;;;;5052755;28;20048;-57
2022/06/05 04:28:44;;;;;;;10.93;6.60;;;12.30;99.90;;;;;;5081241;28;20044;-63
2022/06/05 04:31:30;;;;;;;13.07;7.45;;;12.30;99.90;;;;;;5078167;28;20098;-56
2022/06/05 04:33:59;;;;;;;12.95;7.70;;;12.30;99.90;;;;;;5088556;28;20063;-67
2022/06/05 04:36:26;;;;;;;20.25;7.47;;;12.40;99.90;;;;;;5054669;28;20052;-57
2022/06/05 04:38:51;;;;;;;14.80;7.57;;;12.40;99.90;;;;;;5070523;28;20641;-56
2022/06/05 04:41:22;;;;;;;11.20;7.72;;;12.50;99.90;;;;;;5086883;28;20089;-62
2022/06/05 04:43:49;;;;;;;16.58;8.05;;;12.50;99.90;;;;;;5087061;28;20087;-64
2022/06/05 04:46:17;;;;;;;14.40;7.88;;;12.50;99.90;;;;;;5070205;28;20046;-63
2022/06/05 04:48:47;;;;;;;15.93;7.55;;;12.60;99.90;;;;;;5089184;28;20071;-61
2022/06/05 04:51:13;;;;;;;13.73;8.00;;;12.60;99.90;;;;;;5068595;28;20109;-59
2022/06/05 04:53:40;;;;;;;16.58;7.93;;;12.70;99.90;;;;;;5088792;28;20036;-56
2022/06/05 04:56:08;;;;;;;14.57;8.23;;;12.90;99.90;;;;;;5088012;28;20052;-58
2022/06/05 04:58:34;;;;;;;11.18;8.20;;;13.10;99.90;;;;;;5070375;28;20044;-64
2022/06/05 05:01:00;;;;;;;12.98;7.78;;;13.20;99.90;;;;;;5088385;28;20078;-66
2022/06/05 05:03:26;;;;;;;17.05;8.13;;;13.40;99.90;;;;;;5066655;28;20086;-62
2022/06/05 05:05:53;;;;;;;10.40;7.57;;;13.80;99.90;;;;;;5088081;28;20051;-68
2022/06/05 05:08:20;;;;;;;14.77;7.78;;;14.10;99.90;;;;;;5088343;28;20490;-67
2022/06/05 05:10:46;;;;;;;17.58;9.13;;;14.10;99.90;;;;;;5070529;28;20098;-58
2022/06/05 05:13:11;;;;;;;20.73;7.72;;;14.10;99.90;;;;;;5085900;28;20051;-58
2022/06/05 05:15:37;;;;;;;14.68;7.85;;;14.10;99.90;;;;;;5070421;28;20653;-59
2022/06/05 05:18:03;;;;;;;12.90;7.45;;;14.20;99.90;;;;;;5087914;28;20046;-62
2022/06/05 05:20:29;;;;;;;10.75;7.10;;;14.20;99.90;;;;;;5088181;28;20063;-63
2022/06/05 05:22:55;;;;;;;14.93;8.20;;;14.20;99.90;;;;;;5067530;28;20050;-63
2022/06/05 05:25:21;;;;;;;12.82;7.40;;;14.20;99.90;;;;;;5088100;28;20113;-64
2022/06/05 05:27:47;;;;;;;15.32;7.90;;;14.30;99.90;;;;;;5069882;28;20052;-59
2022/06/05 05:30:13;;;;;;;12.73;7.00;;;14.40;99.90;;;;;;5087748;28;20131;-61
2022/06/05 05:32:39;;;;;;;9.60;6.97;;;14.50;99.90;;;;;;5087997;28;20562;-59
2022/06/05 05:35:05;;;;;;;13.57;7.45;;;14.50;99.90;;;;;;5067272;28;20127;-62
2022/06/05 05:37:31;;;;;;;10.88;6.95;;;14.50;99.90;;;;;;5068963;28;20048;-62
2022/06/05 05:42:41;;;;;;;9.93;6.40;;;14.60;99.90;;;;;;5087437;28;20547;-59
2022/06/05 05:45:08;;;;;;;12.15;6.80;;;14.60;99.90;;;;;;5085435;28;20044;-62
2022/06/05 05:47:34;;;;;;;10.20;6.43;;;14.70;99.90;;;;;;5087532;28;20471;-59
2022/06/05 05:50:04;;;;;;;11.80;6.47;;;14.80;99.90;;;;;;5069027;28;20051;-59
2022/06/05 05:52:31;;;;;;;10.05;6.38;;;14.80;99.90;;;;;;5069319;28;20055;-57
2022/06/05 05:54:57;;;;;;;12.45;7.50;;;15.00;99.90;;;;;;5084693;28;20432;-61
2022/06/05 05:57:23;;;;;;;10.13;5.68;;;15.10;99.90;;;;;;5086721;28;20723;-60
2022/06/05 05:59:49;;;;;;;7.47;6.03;;;15.20;99.90;;;;;;5087392;28;20044;-62
2022/06/05 06:02:21;;;;;;;8.95;6.18;;;15.20;99.90;;;;;;5087173;28;20445;-59
2022/06/05 06:04:48;;;;;;;10.07;6.00;;;15.20;99.90;;;;;;5052343;28;20044;-55
2022/06/05 06:07:15;;;;;;;11.05;6.65;;;15.30;99.90;;;;;;5062612;28;20070;-59
2022/06/05 06:09:41;;;;;;;10.60;6.40;;;15.40;99.90;;;;;;5086779;28;20036;-57
2022/06/05 06:12:08;;;;;;;8.70;6.57;;;15.50;99.90;;;;;;5087000;28;20075;-58
2022/06/05 06:14:34;;;;;;;11.95;7.13;;;15.50;99.90;;;;;;5068421;28;20044;-61
2022/06/05 06:17:00;;;;;;;9.10;6.72;;;15.60;99.90;;;;;;5066918;28;20117;-57
2022/06/05 06:19:26;;;;;;;9.65;6.55;;;15.60;99.90;;;;;;5059887;28;20075;-60
2022/06/05 06:21:52;;;;;;;8.15;7.00;;;15.60;99.90;;;;;;5076768;28;20102;-61
2022/06/05 06:24:18;;;;;;;14.50;8.35;;;15.50;99.90;;;;;;5082048;28;20874;-57
2022/06/05 06:26:44;;;;;;;9.77;7.03;;;15.50;99.90;;;;;;5086720;28;20147;-59
2022/06/05 06:29:10;;;;;;;9.90;7.43;;;15.40;99.90;;;;;;5069020;28;20135;-62
2022/06/05 06:31:41;;;;;;;9.48;6.85;;;15.50;99.90;;;;;;5085336;28;20127;-62
2022/06/05 06:34:07;;;;;;;10.90;7.20;;;15.50;99.90;;;;;;5086232;28;20055;-62
2022/06/05 06:36:34;;;;;;;10.50;7.40;;;15.60;99.90;;;;;;5048752;28;20081;-62
2022/06/05 06:39:00;;;;;;;8.95;6.80;;;15.60;99.90;;;;;;5076504;28;20051;-67
2022/06/05 06:41:26;;;;;;;11.55;7.50;;;15.60;99.90;;;;;;5068628;28;20101;-55
2022/06/05 06:43:52;;;;;;;9.57;7.32;;;15.60;99.90;;;;;;5086372;28;20449;-63
2022/06/05 06:46:19;;;;;;;8.68;7.22;;;15.80;99.90;;;;;;5067627;28;20044;-59
2022/06/05 06:48:45;;;;;;;8.10;7.10;;;15.80;99.90;;;;;;5085521;28;20055;-66
2022/06/05 06:51:11;;;;;;;10.05;6.72;;;16.00;99.90;;;;;;5067934;28;20509;-58
2022/06/05 06:53:39;;;;;;;16.40;7.63;;;16.00;99.90;;;;;;5049017;28;20044;-58
2022/06/05 06:56:26;;;;;;;10.43;7.72;;;16.00;99.90;;;;;;5062286;28;20087;-54
2022/06/05 06:58:52;;;;;;;9.68;7.20;;;16.10;99.90;;;;;;5086731;28;20044;-61
2022/06/05 07:01:18;;;;;;;7.80;6.65;;;16.20;99.90;;;;;;5049877;28;20090;-60
2022/06/05 07:03:45;;;;;;;7.72;6.68;;;16.30;99.90;;;;;;5068362;28;20074;-67
2022/06/05 07:06:12;;;;;;;19.85;7.72;;;16.20;99.90;;;;;;5066662;28;20047;-60
2022/06/05 07:08:38;;;;;;;10.52;6.78;;;16.20;99.90;;;;;;5062389;28;20093;-58
2022/06/05 07:11:08;;;;;;;11.48;6.53;;;16.30;99.90;;;;;;5084135;28;20510;-57
2022/06/05 07:13:36;;;;;;;8.15;6.30;;;16.50;99.90;;;;;;5084886;28;20127;-53
2022/06/05 07:16:02;;;;;;;9.63;6.20;;;16.70;99.90;;;;;;5086807;28;20121;-57
2022/06/05 07:18:28;;;;;;;8.90;5.95;;;16.90;99.90;;;;;;5081373;28;20052;-63
2022/06/05 07:20:53;;;;;;;8.18;6.20;;;17.10;99.90;;;;;;5068037;28;20082;-55
2022/06/05 07:23:19;;;;;;;8.65;6.30;;;17.30;99.90;;;;;;5085640;28;20044;-55
2022/06/05 07:25:48;;;;;;;8.80;5.68;;;17.50;99.50;;;;;;5086870;28;20043;-64
2022/06/05 07:28:14;;;;;;;8.48;5.95;;;17.60;99.90;;;;;;5064393;28;20036;-59
2022/06/05 07:30:40;;;;;;;6.88;6.10;;;17.90;99.90;;;;;;5067916;28;20040;-59
2022/06/05 07:33:05;;;;;;;7.90;5.63;;;18.00;96.40;;;;;;5082124;28;20039;-63
2022/06/05 07:35:31;;;;;;;7.68;6.03;;;18.30;99.90;;;;;;5093032;28;20481;-56
2022/06/05 07:37:57;;;;;;;8.82;5.85;;;18.50;95.00;;;;;;5087453;28;20394;-62
2022/06/05 07:40:23;;;;;;;7.18;5.88;;;18.60;93.10;;;;;;5085149;28;20044;-61
2022/06/05 07:42:49;;;;;;;6.78;5.15;;;18.60;92.40;;;;;;5086033;28;20130;-67
2022/06/05 07:45:15;;;;;;;7.25;4.90;;;18.60;92.60;;;;;;5068729;28;20043;-59
2022/06/05 07:47:42;;;;;;;7.85;5.53;;;18.60;92.70;;;;;;5090791;28;20466;-57
2022/06/05 07:50:08;;;;;;;8.38;5.90;;;18.90;95.00;;;;;;5066955;28;20044;-58
2022/06/05 07:55:18;;;;;;;6.90;5.50;;;19.30;93.60;;;;;;5085240;28;20491;-57
2022/06/05 07:57:44;;;;;;;8.77;5.07;;;19.50;85.50;;;;;;5086937;28;20044;-56
2022/06/05 08:00:11;;;;;;;11.63;5.07;;;19.70;88.00;;;;;;5063910;28;20074;-53
2022/06/05 08:02:38;;;;;;;7.40;5.65;;;19.70;84.30;;;;;;5087354;28;20040;-64
2022/06/05 08:05:04;;;;;;;9.38;5.53;;;19.70;79.60;;;;;;5087979;28;20056;-66
2022/06/05 08:07:32;;;;;;;8.73;5.25;;;19.60;75.60;;;;;;5063278;28;20464;-57
2022/06/05 08:09:59;;;;;;;7.68;4.82;;;19.50;79.70;;;;;;5085077;28;20055;-56
2022/06/05 08:12:29;;;;;;;8.90;5.65;;;19.40;80.30;;;;;;5075449;28;20091;-59
2022/06/05 08:14:54;;;;;;;7.55;5.22;;;19.60;84.60;;;;;;5089099;28;20048;-56
2022/06/05 08:17:26;;;;;;;10.40;4.78;;;19.90;80.10;;;;;;5089030;28;20109;-61
2022/06/05 08:19:54;;;;;;;8.75;5.00;;;20.10;76.10;;;;;;5089378;28;20127;-62
2022/06/05 08:22:22;;;;;;;5.15;4.75;;;20.30;81.80;;;;;;5086979;28;20127;-59
2022/06/05 08:24:48;;;;;;;6.25;4.53;;;20.60;85.50;;;;;;5086804;28;20408;-64
2022/06/05 08:27:17;;;;;;;7.43;4.72;;;20.80;75.30;;;;;;5087523;28;20085;-57
2022/06/05 08:29:44;;;;;;;9.30;4.65;;;20.90;66.80;;;;;;5085207;28;20033;-55
2022/06/05 08:32:10;;;;;;;5.57;4.15;;;21.00;69.90;;;;;;5085703;28;20052;-57
2022/06/05 08:34:37;;;;;;;6.10;4.78;;;21.10;65.00;;;;;;5088706;28;20101;-62
2022/06/05 08:42:46;;;;;;;5.38;4.05;;;21.20;67.50;;;;;;5089410;28;20051;-54
2022/06/05 08:45:17;;;;;;;5.45;3.72;;;21.30;64.30;;;;;;5064536;28;20082;-67
2022/06/05 08:47:49;;;;;;;4.70;4.30;;;21.40;64.60;;;;;;5085890;28;20032;-57
2022/06/05 08:50:36;;;;;;;8.30;4.28;;;21.40;63.60;;;;;;5080539;28;20045;-65
2022/06/05 08:53:20;;;;;;;11.15;4.43;;;21.30;56.40;;;;;;5086790;28;20059;-57
2022/06/05 08:55:48;;;;;;;4.72;4.10;;;21.40;64.70;;;;;;5070496;28;20052;-55
2022/06/05 08:58:55;;;;;;;6.40;3.95;;;21.30;57.90;;;;;;5088044;28;20048;-58
2022/06/05 09:01:59;;;;;;;6.88;3.95;;;21.40;58.80;;;;;;5068345;28;20102;-62
2022/06/05 09:04:54;;;;;;;4.25;3.55;;;21.40;58.30;;;;;;5065324;28;20110;-61
2022/06/05 09:07:33;;;;;;;4.55;3.72;;;21.40;63.00;;;;;;5048375;28;20056;-61
2022/06/05 09:10:06;;;;;;;4.53;3.72;;;21.50;61.60;;;;;;5082286;28;20243;-57
2022/06/05 09:12:42;;;;;;;3.40;3.10;;;21.60;54.40;;;;;;5068938;28;20594;-57
2022/06/05 09:15:49;;;;;;;5.65;3.20;;;21.50;54.70;;;;;;5078221;28;20108;-59
2022/06/05 09:18:20;;;;;;;6.20;3.10;;;21.50;53.00;;;;;;5043334;28;20048;-56
2022/06/05 09:20:53;;;;;;;6.00;3.20;;;21.50;60.80;;;;;;5088198;28;20495;-57
2022/06/05 09:23:51;;;;;;;4.63;3.38;;;21.50;59.90;;;;;;5088809;28;20052;-60
2022/06/05 09:26:47;;;;;;;5.00;3.53;;;21.40;56.90;;;;;;5059378;28;20129;-61
2022/06/05 09:29:27;;;;;;;3.67;3.10;;;21.40;60.70;;;;;;5088016;28;20422;-67
2022/06/05 09:32:21;;;;;;;6.05;3.10;;;21.30;63.30;;;;;;5076591;28;20059;-58
2022/06/05 09:34:52;;;;;;;6.70;3.10;;;21.40;61.00;;;;;;5089248;28;20072;-57
2022/06/05 09:37:35;;;;;;;8.50;3.53;;;21.50;61.80;;;;;;5087501;28;20051;-61
2022/06/05 09:40:20;;;;;;;7.55;3.10;;;21.60;52.80;;;;;;5087551;28;20048;-65
2022/06/05 09:43:16;;;;;;;3.63;2.83;;;21.80;58.30;;;;;;5069829;28;20052;-55
2022/06/05 09:46:10;;;;;;;4.05;2.53;;;22.00;59.30;;;;;;5080496;28;20419;-60
2022/06/05 09:49:08;;;;;;;4.88;2.90;;;22.00;52.50;;;;;;5068506;28;20044;-62
2022/06/05 09:51:36;;;;;;;7.00;2.92;;;22.10;50.20;;;;;;5067959;28;20048;-60
2022/06/05 09:54:13;;;;;;;3.70;2.72;;;22.10;52.50;;;;;;5069244;28;20055;-56
2022/06/05 10:00:01;;;;;;;5.65;3.03;;;22.30;51.20;;;;;;5087019;28;20561;-57
2022/06/05 10:02:29;;;;;;;7.37;3.30;;;22.60;48.10;;;;;;5062693;28;20486;-66
2022/06/05 10:04:55;;;;;;;5.38;3.60;;;22.60;46.00;;;;;;5069979;28;20044;-57
2022/06/05 10:07:34;;;;;;;5.70;3.03;;;22.50;38.70;;;;;;5056199;28;20115;-66
2022/06/05 10:10:17;;;;;;;4.90;2.63;;;22.50;46.40;;;;;;5069050;28;20083;-62
2022/06/05 10:12:54;;;;;;;5.43;3.10;;;22.50;54.40;;;;;;5086668;28;20044;-65
2022/06/05 10:15:31;;;;;;;4.25;2.70;;;22.60;53.80;;;;;;5060180;28;20249;-57
2022/06/05 10:18:23;;;;;;;5.68;3.38;;;22.90;51.90;;;;;;5086525;28;20044;-59
2022/06/05 10:20:56;;;;;;;8.75;2.95;;;23.00;50.20;;;;;;5086969;28;20083;-65
2022/06/05 10:23:43;;;;;;;7.97;3.35;;;23.00;51.00;;;;;;5086376;28;20085;-61
2022/06/05 10:26:29;;;;;;;6.10;3.40;;;23.00;49.30;;;;;;5076786;28;20068;-63
2022/06/05 10:29:17;;;;;;;6.53;2.72;;;23.10;43.80;;;;;;5083899;28;20958;-58
2022/06/05 10:32:06;;;;;;;3.50;2.97;;;23.10;45.40;;;;;;5081596;28;20040;-57
2022/06/05 10:35:23;;;;;;;6.88;3.40;;;23.10;46.70;;;;;;5047758;28;20044;-59
2022/06/05 10:38:24;;;;;;;3.50;2.85;;;23.10;45.30;;;;;;5001197;28;20514;-64
2022/06/05 10:40:54;;;;;;;4.93;2.78;;;23.10;43.60;;;;;;5084145;28;20092;-62
2022/06/05 10:43:28;;;;;;;3.72;3.03;;;23.00;41.00;;;;;;5067881;28;20291;-59
2022/06/05 10:46:19;;;;;;;2.60;2.38;;;22.90;42.20;;;;;;5064460;28;20048;-57
2022/06/05 10:49:01;;;;;;;5.63;3.00;;;22.90;47.80;;;;;;5049394;28;20582;-68
2022/06/05 10:51:47;;;;;;;4.32;3.00;;;22.90;47.10;;;;;;5074809;28;20066;-59
2022/06/05 10:54:38;;;;;;;7.28;2.80;;;23.10;47.70;;;;;;5085432;28;20056;-57
2022/06/05 10:57:10;;;;;;;4.88;2.90;;;23.20;49.00;;;;;;5083523;28;20075;-61
2022/06/05 10:59:44;;;;;;;4.00;2.53;;;23.20;41.00;;;;;;5066969;28;20036;-61
2022/06/05 11:02:50;;;;;;;3.97;2.50;;;23.30;41.60;;;;;;5086041;28;20048;-63
2022/06/05 11:05:17;;;;;;;3.65;2.65;;;23.40;47.10;;;;;;5083573;28;20067;-59
2022/06/05 11:08:23;;;;;;;7.13;2.80;;;23.30;44.40;;;;;;5077965;28;20067;-61
2022/06/05 11:13:45;;;;;;;5.38;2.53;;;23.10;46.10;;;;;;5085811;28;20052;-57
2022/06/05 11:16:32;;;;;;;5.07;2.60;;;23.10;54.70;;;;;;5067887;28;20040;-66
2022/06/05 11:19:15;;;;;;;2.60;2.40;;;23.10;50.70;;;;;;5085028;28;20047;-59
2022/06/05 11:21:43;;;;;;;2.50;2.30;;;23.00;52.00;;;;;;5085707;28;20056;-64
2022/06/05 11:24:29;;;;;;;3.65;2.58;;;22.90;45.10;;;;;;5085730;28;20097;-66
2022/06/05 11:27:08;;;;;;;6.53;2.53;;;22.90;46.80;;;;;;5086466;28;20044;-59
2022/06/05 11:30:03;;;;;;;11.18;2.40;;;23.00;51.80;;;;;;5082966;28;20071;-60
2022/06/05 11:32:48;;;;;;;4.57;2.50;;;23.00;48.10;;;;;;5079189;28;20537;-67
2022/06/05 11:35:30;;;;;;;3.33;2.05;;;23.00;53.00;;;;;;5065958;28;20044;-63
2022/06/05 11:38:17;;;;;;;3.10;2.10;;;23.10;48.00;;;;;;5085905;28;20050;-61
2022/06/05 11:41:13;;;;;;;5.72;2.42;;;23.00;52.70;;;;;;5065381;28;20055;-64
2022/06/05 11:43:41;;;;;;;4.65;2.42;;;23.00;49.60;;;;;;5076170;28;20105;-57
2022/06/05 11:46:15;;;;;;;5.20;2.33;;;23.00;44.00;;;;;;5071948;28;20080;-59
2022/06/05 11:48:41;;;;;;;5.40;2.40;;;23.00;43.00;;;;;;5058122;28;20043;-65
2022/06/05 11:51:19;;;;;;;7.43;2.42;;;23.00;47.50;;;;;;5084369;28;20101;-61
2022/06/05 11:54:07;;;;;;;5.50;2.23;;;23.00;43.20;;;;;;5057136;28;20063;-63
2022/06/05 11:57:05;;;;;;;2.13;1.92;;;23.00;47.40;;;;;;5089309;28;20151;-58
2022/06/05 12:00:00;;;;;;;3.47;1.92;;;23.00;43.80;;;;;;5088963;28;20073;-53
2022/06/05 12:02:51;;;;;;;1.95;1.83;;;23.10;45.60;;;;;;5052673;28;20486;-64
2022/06/05 12:05:47;;;;;;;2.25;2.05;;;23.20;42.60;;;;;;5090036;28;20048;-66
2022/06/05 12:08:18;;;;;;;4.15;1.98;;;23.20;42.00;;;;;;5089157;28;20040;-63
2022/06/05 12:10:59;;;;;;;2.85;2.10;;;23.20;36.90;;;;;;5088939;28;20510;-59
2022/06/05 12:13:40;;;;;;;3.35;2.20;;;23.20;40.50;;;;;;5087726;28;20108;-66
2022/06/05 12:16:14;;;;;;;2.08;1.85;;;23.20;37.20;;;;;;5089399;28;20044;-62
2022/06/05 12:18:56;;;;;;;4.32;2.05;;;23.20;35.90;;;;;;5070676;28;20047;-62
2022/06/05 12:21:27;;;;;;;2.22;1.80;;;23.20;42.90;;;;;;5088207;28;20044;-64
2022/06/05 12:24:02;;;;;;;4.68;2.00;;;23.20;35.40;;;;;;5087202;28;20588;-63
2022/06/05 12:26:39;;;;;;;2.00;1.90;;;23.20;36.70;;;;;;5089224;28;20115;-59
2022/06/05 12:29:31;;;;;;;3.05;2.20;;;23.10;36.00;;;;;;5089041;28;20489;-56
2022/06/05 12:32:20;;;;;;;2.15;1.95;;;23.20;38.80;;;;;;5060610;28;20066;-64
2022/06/05 12:34:58;;;;;;;4.60;1.58;;;23.30;34.40;;;;;;5072953;28;20139;-55
2022/06/05 12:37:55;;;;;;;4.05;1.98;;;23.30;31.70;;;;;;5089213;28;20047;-57
2022/06/05 12:40:28;;;;;;;2.08;1.90;;;23.30;36.60;;;;;;5054543;28;20139;-62
2022/06/05 12:43:00;;;;;;;5.85;2.05;;;23.20;33.60;;;;;;5083430;28;20363;-55
2022/06/05 12:45:29;;;;;;;2.33;1.90;;;23.30;35.70;;;;;;5076637;28;20071;-65
2022/06/05 12:48:22;;;;;;;2.35;1.83;;;23.30;35.50;;;;;;5088258;28;20047;-68
2022/06/05 12:51:05;;;;;;;4.63;2.00;;;23.10;37.30;;;;;;5043417;28;20055;-57
2022/06/05 12:53:35;;;;;;;4.25;1.88;;;23.10;35.50;;;;;;5071004;28;20044;-57
2022/06/05 12:56:20;;;;;;;2.97;1.80;;;23.10;35.50;;;;;;5070470;28;20055;-65
2022/06/05 12:58:52;;;;;;;3.80;1.70;;;23.10;31.10;;;;;;5067034;28;20052;-60
2022/06/05 13:01:26;;;;;;;2.28;1.85;;;23.10;32.80;;;;;;5062422;28;20112;-60
2022/06/05 13:03:55;;;;;;;2.22;1.85;;;23.00;33.90;;;;;;5088019;28;20069;-63
2022/06/05 13:06:51;;;;;;;3.60;1.80;;;23.00;35.50;;;;;;5088674;28;20047;-61
2022/06/05 13:09:51;;;;;;;2.95;2.00;;;23.00;32.50;;;;;;5066856;28;20487;-62
2022/06/05 13:12:39;;;;;;;2.10;1.80;;;23.00;43.60;;;;;;5082435;28;20130;-60
2022/06/05 13:15:27;;;;;;;4.38;2.00;;;23.00;41.20;;;;;;5087823;28;20478;-64
2022/06/05 13:18:22;;;;;;;6.25;1.77;;;23.00;34.40;;;;;;5082739;28;20619;-67
2022/06/05 13:20:54;;;;;;;5.20;1.92;;;22.90;34.30;;;;;;5072733;28;20052;-58
2022/06/05 13:23:41;;;;;;;1.85;1.70;;;22.80;32.70;;;;;;5086317;28;20456;-65
2022/06/05 13:26:25;;;;;;;4.65;1.90;;;22.90;35.00;;;;;;5086059;28;20059;-63
2022/06/05 13:28:51;;;;;;;3.75;1.90;;;22.80;35.90;;;;;;5063774;28;20047;-61
2022/06/05 13:31:44;;;;;;;3.22;1.80;;;22.70;37.70;;;;;;5064913;28;20301;-60
2022/06/05 13:34:43;;;;;;;1.95;1.83;;;22.70;37.80;;;;;;5035458;28;20056;-61
2022/06/05 13:37:16;;;;;;;2.40;2.20;;;22.70;43.20;;;;;;5082018;28;20044;-67
2022/06/05 13:40:19;;;;;;;3.08;2.10;;;22.60;44.40;;;;;;5083923;28;20044;-64